Time;durP1;ratioP1;P1;durP2;ratioP2;P2;SDS_P1;SDS_P2;PMS_P1;PMS_P2;Temp;Humidity;BMP_temperature;BMP_pressure;BME280_temperature;BME280_humidity;BME280_pressure;Samples;Min_cycle;Max_cycle;Signal;HPM_P1;HPM_P2
2023/06/24 00:02:17;;;;;;;8.30;7.70;;;;;;;;;;5030797;28;20940;-65
2023/06/24 00:04:43;;;;;;;10.87;8.07;;;;;;;;;;5032171;28;20477;-65
2023/06/24 00:07:09;;;;;;;11.00;7.77;;;;;;;;;;5032134;28;20448;-65
2023/06/24 00:09:35;;;;;;;8.87;7.80;;;;;;;;;;5032060;28;20456;-65
2023/06/24 00:12:02;;;;;;;9.37;8.00;;;;;;;;;;5032199;28;20427;-65
2023/06/24 00:14:33;;;;;;;8.80;7.37;;;;;;;;;;5032249;28;20479;-65
2023/06/24 00:16:59;;;;;;;9.97;9.03;;;;;;;;;;5032399;28;20428;-65
2023/06/24 00:19:26;;;;;;;9.63;8.70;;;;;;;;;;5038403;28;20425;-65
2023/06/24 00:22:03;;;;;;;9.07;8.23;;;;;;;;;;5038607;28;20448;-65
2023/06/24 00:24:29;;;;;;;9.10;8.20;;;;;;;;;;5038521;28;20472;-65
2023/06/24 00:26:55;;;;;;;10.80;8.00;;;;;;;;;;5038718;28;20404;-65
2023/06/24 00:29:24;;;;;;;8.40;7.80;;;;;;;;;;5038661;28;20498;-65
2023/06/24 00:31:50;;;;;;;9.63;8.63;;;;;;;;;;5038544;28;20412;-65
2023/06/24 00:34:19;;;;;;;9.30;7.40;;;;;;;;;;5038603;28;20422;-65
2023/06/24 00:36:46;;;;;;;8.17;7.43;;;;;;;;;;5038456;28;20417;-65
2023/06/24 00:39:12;;;;;;;9.73;8.67;;;;;;;;;;5038350;28;20553;-65
2023/06/24 00:41:38;;;;;;;10.60;8.10;;;;;;;;;;5038408;28;20463;-65
2023/06/24 00:44:05;;;;;;;8.93;8.33;;;;;;;;;;5038442;28;20479;-65
2023/06/24 00:46:33;;;;;;;8.40;7.90;;;;;;;;;;5038503;28;20423;-65
2023/06/24 00:49:00;;;;;;;9.30;8.00;;;;;;;;;;5038705;28;20507;-65
2023/06/24 00:51:30;;;;;;;8.13;7.47;;;;;;;;;;5038226;28;20400;-65
2023/06/24 00:54:02;;;;;;;9.47;8.20;;;;;;;;;;5038355;28;20436;-65
2023/06/24 00:56:32;;;;;;;9.50;8.70;;;;;;;;;;5038493;28;20419;-65
2023/06/24 00:59:01;;;;;;;10.47;8.50;;;;;;;;;;5036869;28;20926;-65
2023/06/24 01:01:28;;;;;;;9.03;7.90;;;;;;;;;;5038095;28;20420;-65
2023/06/24 01:03:56;;;;;;;16.40;8.60;;;;;;;;;;5037937;28;20943;-65
2023/06/24 01:06:28;;;;;;;9.00;8.23;;;;;;;;;;5036885;28;20527;-65
2023/06/24 01:08:56;;;;;;;9.33;8.40;;;;;;;;;;5037948;28;20441;-65
2023/06/24 01:11:22;;;;;;;8.00;7.27;;;;;;;;;;5038162;28;20446;-65
2023/06/24 01:13:48;;;;;;;7.87;7.37;;;;;;;;;;5038104;28;20902;-65
2023/06/24 01:16:19;;;;;;;8.10;7.10;;;;;;;;;;5038220;28;20565;-65
2023/06/24 01:18:48;;;;;;;7.33;6.83;;;;;;;;;;5038073;28;20906;-65
2023/06/24 01:21:14;;;;;;;8.20;7.17;;;;;;;;;;5038085;28;20420;-65
2023/06/24 01:23:48;;;;;;;9.60;7.37;;;;;;;;;;5038009;28;20528;-65
2023/06/24 01:26:20;;;;;;;7.10;6.60;;;;;;;;;;5037872;28;20961;-61
2023/06/24 01:28:56;;;;;;;9.27;7.47;;;;;;;;;;5036932;28;20958;-61
2023/06/24 01:31:41;;;;;;;11.83;7.40;;;;;;;;;;5034498;28;20435;-61
2023/06/24 01:34:07;;;;;;;8.30;7.03;;;;;;;;;;5034281;28;20439;-62
2023/06/24 01:36:35;;;;;;;8.93;7.73;;;;;;;;;;5034524;28;20404;-61
2023/06/24 01:39:02;;;;;;;7.90;7.30;;;;;;;;;;5034749;28;20436;-61
2023/06/24 01:41:32;;;;;;;8.03;7.40;;;;;;;;;;5034092;28;20885;-61
2023/06/24 01:43:58;;;;;;;8.00;7.30;;;;;;;;;;5034456;28;20564;-61
2023/06/24 01:46:27;;;;;;;9.63;7.57;;;;;;;;;;5034730;28;20513;-61
2023/06/24 01:48:55;;;;;;;8.57;7.87;;;;;;;;;;5034613;28;20422;-61
2023/06/24 01:51:23;;;;;;;10.90;6.70;;;;;;;;;;5034452;28;20473;-61
2023/06/24 01:53:53;;;;;;;8.13;7.43;;;;;;;;;;5034516;28;20881;-61
2023/06/24 01:56:20;;;;;;;8.67;7.80;;;;;;;;;;5033835;28;20514;-61
2023/06/24 01:58:47;;;;;;;9.30;7.50;;;;;;;;;;5033278;28;20421;-61
2023/06/24 02:01:13;;;;;;;8.40;7.63;;;;;;;;;;5033881;28;20521;-61
2023/06/24 02:03:44;;;;;;;7.17;6.67;;;;;;;;;;5034255;28;20513;-61
2023/06/24 02:06:10;;;;;;;7.73;7.00;;;;;;;;;;5034127;28;20418;-61
2023/06/24 02:08:38;;;;;;;7.63;6.90;;;;;;;;;;5033993;28;20431;-61
2023/06/24 02:11:04;;;;;;;13.50;7.97;;;;;;;;;;5033850;28;20416;-61
2023/06/24 02:13:36;;;;;;;8.10;7.50;;;;;;;;;;5033994;28;20920;-61
2023/06/24 02:16:03;;;;;;;10.37;7.13;;;;;;;;;;5034012;28;20409;-61
2023/06/24 02:18:29;;;;;;;12.63;7.40;;;;;;;;;;5032832;28;20416;-61
2023/06/24 02:20:56;;;;;;;8.10;7.40;;;;;;;;;;5033765;28;20503;-61
2023/06/24 02:23:25;;;;;;;8.17;7.50;;;;;;;;;;5033923;28;20533;-61
2023/06/24 02:25:51;;;;;;;7.47;6.87;;;;;;;;;;5033544;28;20876;-61
2023/06/24 02:28:20;;;;;;;8.23;7.40;;;;;;;;;;5034125;28;20421;-61
2023/06/24 02:30:49;;;;;;;17.13;6.90;;;;;;;;;;5033746;28;20847;-61
2023/06/24 02:33:15;;;;;;;8.93;8.10;;;;;;;;;;5033871;28;20456;-61
2023/06/24 02:35:41;;;;;;;7.90;7.10;;;;;;;;;;5033616;28;20440;-61
2023/06/24 02:38:08;;;;;;;10.47;7.80;;;;;;;;;;5033449;28;20974;-61
2023/06/24 02:40:34;;;;;;;11.03;7.93;;;;;;;;;;5033392;28;20511;-61
2023/06/24 02:43:00;;;;;;;19.23;8.10;;;;;;;;;;5033626;28;20674;-61
2023/06/24 02:45:27;;;;;;;18.63;8.63;;;;;;;;;;5033668;28;20450;-61
2023/06/24 02:47:54;;;;;;;11.90;7.77;;;;;;;;;;5033244;28;20451;-61
2023/06/24 02:50:20;;;;;;;13.73;7.47;;;;;;;;;;5033132;28;20423;-61
2023/06/24 02:52:49;;;;;;;22.97;8.73;;;;;;;;;;5033296;28;20779;-61
2023/06/24 02:55:17;;;;;;;24.37;8.23;;;;;;;;;;5033091;28;20420;-61
2023/06/24 02:57:46;;;;;;;11.03;7.00;;;;;;;;;;5015850;28;21006;-61
2023/06/24 03:00:13;;;;;;;16.00;6.90;;;;;;;;;;5033374;28;20425;-61
2023/06/24 03:02:39;;;;;;;15.20;6.63;;;;;;;;;;5033176;28;20929;-61
2023/06/24 03:05:06;;;;;;;17.83;8.30;;;;;;;;;;5032898;28;20474;-61
2023/06/24 03:07:34;;;;;;;15.33;7.30;;;;;;;;;;5033102;28;20414;-61
2023/06/24 03:10:01;;;;;;;13.77;7.80;;;;;;;;;;5032787;28;20418;-61
2023/06/24 03:12:26;;;;;;;12.67;7.97;;;;;;;;;;5031704;28;20503;-62
2023/06/24 03:14:52;;;;;;;11.33;7.63;;;;;;;;;;5032642;28;20453;-61
2023/06/24 03:17:18;;;;;;;7.60;6.90;;;;;;;;;;5032755;28;20407;-62
2023/06/24 03:19:44;;;;;;;11.63;7.00;;;;;;;;;;5032496;28;20441;-61
2023/06/24 03:22:13;;;;;;;11.83;6.43;;;;;;;;;;5032844;28;20509;-61
2023/06/24 03:24:39;;;;;;;14.77;8.83;;;;;;;;;;5032655;28;20490;-61
2023/06/24 03:27:05;;;;;;;9.63;7.57;;;;;;;;;;5032520;28;20408;-61
2023/06/24 03:29:31;;;;;;;22.73;7.50;;;;;;;;;;5031165;28;20479;-61
2023/06/24 03:31:57;;;;;;;12.80;7.10;;;;;;;;;;5032741;28;20917;-61
2023/06/24 03:34:23;;;;;;;10.80;7.67;;;;;;;;;;5031553;28;20443;-61
2023/06/24 03:36:51;;;;;;;8.33;7.53;;;;;;;;;;5032521;28;20435;-61
2023/06/24 03:39:17;;;;;;;15.13;7.20;;;;;;;;;;5032424;28;20910;-61
2023/06/24 03:41:45;;;;;;;8.37;7.63;;;;;;;;;;5032806;28;20439;-61
2023/06/24 03:44:13;;;;;;;12.13;6.80;;;;;;;;;;5032395;28;20489;-61
2023/06/24 03:46:39;;;;;;;11.80;7.63;;;;;;;;;;5031975;28;20440;-61
2023/06/24 03:49:08;;;;;;;13.23;7.40;;;;;;;;;;5032291;28;20426;-61
2023/06/24 03:51:34;;;;;;;9.17;7.77;;;;;;;;;;5032053;28;20408;-61
2023/06/24 03:54:00;;;;;;;10.63;7.80;;;;;;;;;;5031640;28;20423;-61
2023/06/24 03:56:26;;;;;;;7.27;6.57;;;;;;;;;;5032417;28;20917;-61
2023/06/24 03:58:52;;;;;;;9.40;7.23;;;;;;;;;;5032214;28;20439;-61
2023/06/24 04:01:19;;;;;;;7.67;6.80;;;;;;;;;;5032170;28;20481;-61
2023/06/24 04:03:45;;;;;;;8.17;7.23;;;;;;;;;;5031639;28;20485;-61
2023/06/24 04:06:11;;;;;;;36.03;23.60;;;;;;;;;;5032254;28;20407;-61
2023/06/24 04:08:39;;;;;;;24.33;14.73;;;;;;;;;;5031981;28;20455;-61
2023/06/24 04:11:06;;;;;;;17.53;8.07;;;;;;;;;;5031909;28;20837;-61
2023/06/24 04:13:33;;;;;;;13.43;8.53;;;;;;;;;;5032221;28;20456;-61
2023/06/24 04:15:59;;;;;;;13.30;7.70;;;;;;;;;;5032051;28;20470;-61
2023/06/24 04:18:27;;;;;;;10.57;7.57;;;;;;;;;;5032629;28;20458;-61
2023/06/24 04:20:54;;;;;;;15.60;7.23;;;;;;;;;;5031776;28;20435;-61
2023/06/24 04:23:20;;;;;;;14.03;8.20;;;;;;;;;;5031639;28;20419;-61
2023/06/24 04:25:46;;;;;;;10.30;7.50;;;;;;;;;;5032041;28;20422;-61
2023/06/24 04:28:12;;;;;;;9.13;7.70;;;;;;;;;;5031823;28;20414;-61
2023/06/24 04:30:41;;;;;;;8.50;6.43;;;;;;;;;;5031947;28;20423;-61
2023/06/24 04:33:07;;;;;;;10.10;6.47;;;;;;;;;;5031838;28;20473;-61
2023/06/24 04:35:33;;;;;;;20.13;7.27;;;;;;;;;;5031970;28;20415;-61
2023/06/24 04:38:02;;;;;;;14.13;7.33;;;;;;;;;;5031838;28;20480;-61
2023/06/24 04:40:28;;;;;;;9.40;7.00;;;;;;;;;;5031694;28;20411;-61
2023/06/24 04:42:54;;;;;;;13.40;7.97;;;;;;;;;;5031685;28;20454;-61
2023/06/24 04:45:20;;;;;;;8.00;7.20;;;;;;;;;;5031593;28;20972;-61
2023/06/24 04:47:46;;;;;;;13.67;7.07;;;;;;;;;;5031334;28;20977;-61
2023/06/24 04:50:12;;;;;;;13.83;8.00;;;;;;;;;;5031496;28;20509;-61
2023/06/24 04:52:39;;;;;;;12.30;7.90;;;;;;;;;;5030328;28;20428;-61
2023/06/24 04:55:08;;;;;;;9.23;8.17;;;;;;;;;;5031848;28;20890;-61
2023/06/24 04:57:37;;;;;;;9.40;8.17;;;;;;;;;;5031533;28;20476;-61
2023/06/24 05:00:04;;;;;;;8.53;7.47;;;;;;;;;;5030163;28;20841;-61
2023/06/24 05:02:33;;;;;;;12.57;8.27;;;;;;;;;;5031598;28;20899;-61
2023/06/24 05:04:59;;;;;;;15.60;12.87;;;;;;;;;;5032791;28;20471;-61
2023/06/24 05:07:27;;;;;;;21.53;14.20;;;;;;;;;;5034915;28;20494;-61
2023/06/24 05:09:53;;;;;;;23.47;11.00;;;;;;;;;;5035122;28;20818;-61
2023/06/24 05:12:19;;;;;;;13.77;12.40;;;;;;;;;;5035109;28;20435;-61
2023/06/24 05:14:49;;;;;;;9.40;8.43;;;;;;;;;;5035103;28;20856;-61
2023/06/24 05:17:15;;;;;;;8.40;7.80;;;;;;;;;;5034204;28;20625;-61
2023/06/24 05:19:43;;;;;;;9.17;8.37;;;;;;;;;;5035337;28;20833;-61
2023/06/24 05:22:09;;;;;;;12.00;8.70;;;;;;;;;;5035091;28;20767;-61
2023/06/24 05:24:35;;;;;;;18.67;12.93;;;;;;;;;;5035030;28;20468;-61
2023/06/24 05:27:07;;;;;;;14.50;13.10;;;;;;;;;;5034245;28;20879;-61
2023/06/24 05:29:34;;;;;;;15.00;13.43;;;;;;;;;;5035033;28;20440;-61
2023/06/24 05:32:03;;;;;;;9.87;9.13;;;;;;;;;;5035171;28;20435;-61
2023/06/24 05:34:30;;;;;;;8.43;7.40;;;;;;;;;;5035004;28;20423;-61
2023/06/24 05:36:56;;;;;;;8.70;8.10;;;;;;;;;;5035076;28;20412;-62
2023/06/24 05:39:22;;;;;;;8.77;7.87;;;;;;;;;;5034761;28;20807;-62
2023/06/24 05:41:48;;;;;;;7.93;7.07;;;;;;;;;;5034635;28;20418;-61
2023/06/24 05:44:14;;;;;;;10.50;7.63;;;;;;;;;;5034849;28;20469;-61
2023/06/24 05:46:40;;;;;;;7.27;6.80;;;;;;;;;;5034972;28;20905;-61
2023/06/24 05:49:06;;;;;;;6.43;6.03;;;;;;;;;;5034841;28;20445;-61
2023/06/24 05:51:35;;;;;;;14.80;12.70;;;;;;;;;;5034568;28;20418;-61
2023/06/24 05:54:01;;;;;;;12.60;8.37;;;;;;;;;;5034336;28;20479;-61
2023/06/24 05:56:27;;;;;;;10.30;7.27;;;;;;;;;;5033267;28;20418;-61
2023/06/24 05:58:53;;;;;;;7.30;6.83;;;;;;;;;;5034606;28;20423;-60
2023/06/24 06:01:19;;;;;;;7.63;6.63;;;;;;;;;;5034010;28;20769;-61
2023/06/24 06:03:45;;;;;;;6.50;5.97;;;;;;;;;;5034195;28;20473;-60
2023/06/24 06:06:11;;;;;;;7.30;6.63;;;;;;;;;;5032852;28;20507;-60
2023/06/24 06:08:37;;;;;;;10.37;5.67;;;;;;;;;;5034008;28;21005;-60
2023/06/24 06:11:03;;;;;;;12.83;6.80;;;;;;;;;;5034290;28;20443;-60
2023/06/24 06:13:29;;;;;;;7.03;6.40;;;;;;;;;;5034050;28;21035;-60
2023/06/24 06:15:56;;;;;;;7.23;6.53;;;;;;;;;;5033603;28;20802;-60
2023/06/24 06:18:24;;;;;;;7.33;6.73;;;;;;;;;;5034344;28;20780;-60
2023/06/24 06:20:50;;;;;;;6.60;6.10;;;;;;;;;;5034010;28;20893;-61
2023/06/24 06:23:16;;;;;;;7.07;6.63;;;;;;;;;;5033968;28;20418;-61
2023/06/24 06:25:42;;;;;;;6.70;6.27;;;;;;;;;;5034378;28;20431;-61
2023/06/24 06:28:13;;;;;;;6.40;5.90;;;;;;;;;;5034344;28;20435;-60
2023/06/24 06:30:39;;;;;;;5.47;5.17;;;;;;;;;;5034387;28;20478;-61
2023/06/24 06:33:05;;;;;;;6.57;6.07;;;;;;;;;;5034181;28;20433;-61
2023/06/24 06:35:31;;;;;;;7.30;6.53;;;;;;;;;;5034102;28;20411;-60
2023/06/24 06:38:00;;;;;;;7.07;6.27;;;;;;;;;;5033888;28;20534;-60
2023/06/24 06:40:29;;;;;;;6.37;5.73;;;;;;;;;;5034026;28;20752;-60
2023/06/24 06:42:55;;;;;;;81.13;71.87;;;;;;;;;;5033980;28;20440;-60
2023/06/24 06:45:21;;;;;;;6.93;6.53;;;;;;;;;;5033566;28;20457;-60
2023/06/24 06:47:47;;;;;;;5.87;5.37;;;;;;;;;;5033918;28;20758;-60
2023/06/24 06:50:13;;;;;;;5.30;5.00;;;;;;;;;;5033830;28;20419;-62
2023/06/24 06:52:39;;;;;;;5.37;4.90;;;;;;;;;;5033754;28;20401;-61
2023/06/24 06:55:05;;;;;;;6.77;5.90;;;;;;;;;;5033660;28;20492;-61
2023/06/24 06:57:31;;;;;;;5.87;5.47;;;;;;;;;;5033384;28;20841;-61
2023/06/24 07:00:00;;;;;;;5.47;5.10;;;;;;;;;;5033551;28;20926;-61
2023/06/24 07:02:30;;;;;;;5.40;5.03;;;;;;;;;;5033247;28;20512;-61
2023/06/24 07:04:56;;;;;;;6.10;5.57;;;;;;;;;;5033501;28;20983;-61
2023/06/24 07:07:22;;;;;;;5.67;5.13;;;;;;;;;;5033294;28;20409;-61
2023/06/24 07:09:48;;;;;;;5.73;5.40;;;;;;;;;;5032974;28;20435;-61
2023/06/24 07:12:14;;;;;;;6.30;5.73;;;;;;;;;;5033416;28;20394;-61
2023/06/24 07:14:40;;;;;;;5.80;5.40;;;;;;;;;;5032910;28;20519;-61
2023/06/24 07:17:09;;;;;;;5.40;5.10;;;;;;;;;;5033266;28;20419;-61
2023/06/24 07:19:37;;;;;;;6.47;5.80;;;;;;;;;;5032752;28;20428;-61
2023/06/24 07:22:03;;;;;;;6.10;5.70;;;;;;;;;;5032436;28;20433;-61
2023/06/24 07:24:29;;;;;;;6.63;6.00;;;;;;;;;;5032995;28;20470;-61
2023/06/24 07:26:57;;;;;;;7.07;5.87;;;;;;;;;;5032606;28;20413;-61
2023/06/24 07:29:23;;;;;;;5.37;5.17;;;;;;;;;;5032288;28;20419;-61
2023/06/24 07:31:49;;;;;;;8.13;6.50;;;;;;;;;;5031311;28;20497;-61
2023/06/24 07:34:15;;;;;;;6.43;5.80;;;;;;;;;;5032655;28;20427;-61
2023/06/24 07:36:41;;;;;;;6.60;6.00;;;;;;;;;;5033473;28;20488;-61
2023/06/24 07:39:09;;;;;;;5.50;5.20;;;;;;;;;;5032505;28;20647;-61
2023/06/24 07:41:35;;;;;;;5.83;5.23;;;;;;;;;;5033003;28;20411;-61
2023/06/24 07:44:01;;;;;;;6.03;5.63;;;;;;;;;;5032625;28;20969;-61
2023/06/24 07:46:27;;;;;;;6.40;6.10;;;;;;;;;;5032772;28;20881;-61
2023/06/24 07:48:56;;;;;;;5.30;5.00;;;;;;;;;;5033100;28;20438;-61
2023/06/24 07:51:22;;;;;;;5.23;4.93;;;;;;;;;;5032766;28;20485;-61
2023/06/24 07:53:48;;;;;;;5.60;5.20;;;;;;;;;;5032680;28;20507;-61
2023/06/24 07:56:14;;;;;;;7.43;5.93;;;;;;;;;;5032780;28;20475;-61
2023/06/24 07:58:40;;;;;;;5.63;5.23;;;;;;;;;;5031968;28;20410;-62
2023/06/24 08:01:06;;;;;;;7.27;5.77;;;;;;;;;;5032894;28;20788;-61
2023/06/24 08:03:32;;;;;;;6.23;5.73;;;;;;;;;;5032215;28;20499;-61
2023/06/24 08:05:58;;;;;;;5.30;5.00;;;;;;;;;;5032317;28;20425;-61
2023/06/24 08:08:24;;;;;;;7.03;6.43;;;;;;;;;;5032229;28;20939;-61
2023/06/24 08:10:52;;;;;;;5.50;5.13;;;;;;;;;;5032453;28;20418;-61
2023/06/24 08:13:20;;;;;;;6.33;5.10;;;;;;;;;;5032225;28;20877;-61
2023/06/24 08:15:46;;;;;;;5.23;5.03;;;;;;;;;;5032763;28;20422;-61
2023/06/24 08:18:12;;;;;;;5.53;5.13;;;;;;;;;;5032022;28;20416;-61
2023/06/24 08:20:38;;;;;;;6.57;5.27;;;;;;;;;;5032237;28;20826;-61
2023/06/24 08:23:04;;;;;;;5.43;4.93;;;;;;;;;;5032038;28;20422;-61
2023/06/24 08:25:31;;;;;;;8.57;5.00;;;;;;;;;;5032162;28;20980;-61
2023/06/24 08:27:57;;;;;;;5.40;5.10;;;;;;;;;;5032337;28;20541;-61
2023/06/24 08:30:23;;;;;;;5.50;5.13;;;;;;;;;;5031828;28;20415;-61
2023/06/24 08:32:51;;;;;;;5.20;5.00;;;;;;;;;;5032291;28;20400;-61
2023/06/24 08:35:17;;;;;;;5.00;4.60;;;;;;;;;;5030606;28;20439;-61
2023/06/24 08:37:45;;;;;;;6.10;5.53;;;;;;;;;;5032145;28;20493;-61
2023/06/24 08:40:11;;;;;;;5.17;4.80;;;;;;;;;;5035437;28;20447;-61
2023/06/24 08:42:37;;;;;;;5.37;5.17;;;;;;;;;;5036134;28;20426;-61
2023/06/24 08:45:06;;;;;;;5.57;4.90;;;;;;;;;;5036064;28;20470;-61
2023/06/24 08:47:32;;;;;;;4.90;4.73;;;;;;;;;;5035767;28;20415;-61
2023/06/24 08:50:13;;;;;;;5.13;4.73;;;;;;;;;;5036228;28;20441;-61
2023/06/24 08:52:42;;;;;;;5.30;4.90;;;;;;;;;;5035973;28;20412;-61
2023/06/24 08:55:10;;;;;;;7.23;4.40;;;;;;;;;;5035593;28;20415;-62
2023/06/24 08:57:38;;;;;;;4.60;4.40;;;;;;;;;;5035789;28;20419;-61
2023/06/24 09:00:04;;;;;;;4.87;4.57;;;;;;;;;;5035544;28;20446;-61
2023/06/24 09:02:32;;;;;;;4.73;4.53;;;;;;;;;;5035899;28;20416;-61
2023/06/24 09:04:58;;;;;;;5.00;4.60;;;;;;;;;;5035746;28;20473;-61
2023/06/24 09:07:28;;;;;;;4.03;3.93;;;;;;;;;;5035482;28;20463;-61
2023/06/24 09:09:54;;;;;;;4.97;4.63;;;;;;;;;;5035624;28;20455;-61
2023/06/24 09:12:20;;;;;;;4.47;4.33;;;;;;;;;;5035295;28;20811;-61
2023/06/24 09:14:51;;;;;;;5.47;4.83;;;;;;;;;;5035681;28;20446;-61
2023/06/24 09:17:22;;;;;;;6.10;4.60;;;;;;;;;;5035500;28;20423;-61
2023/06/24 09:19:50;;;;;;;4.20;4.10;;;;;;;;;;5035401;28;20817;-61
2023/06/24 09:22:22;;;;;;;4.30;4.20;;;;;;;;;;5035524;28;20430;-61
2023/06/24 09:24:48;;;;;;;4.23;3.93;;;;;;;;;;5035468;28;20510;-61
2023/06/24 09:27:15;;;;;;;4.00;3.80;;;;;;;;;;5035516;28;20413;-62
2023/06/24 09:29:42;;;;;;;4.53;4.40;;;;;;;;;;5034751;28;20541;-57
2023/06/24 09:32:08;;;;;;;6.27;4.40;;;;;;;;;;5035022;28;20431;-57
2023/06/24 09:34:34;;;;;;;4.30;4.20;;;;;;;;;;5035161;28;20449;-57
2023/06/24 09:37:01;;;;;;;4.43;4.33;;;;;;;;;;5034961;28;20516;-58
2023/06/24 09:39:30;;;;;;;4.47;4.33;;;;;;;;;;5034493;28;20428;-56
2023/06/24 09:42:00;;;;;;;4.67;4.30;;;;;;;;;;5035057;28;20398;-56
2023/06/24 09:44:29;;;;;;;4.43;4.23;;;;;;;;;;5034754;28;20471;-57
2023/06/24 09:46:56;;;;;;;4.40;4.20;;;;;;;;;;5034541;28;20435;-57
2023/06/24 09:49:22;;;;;;;4.87;4.60;;;;;;;;;;5034667;28;20573;-57
2023/06/24 09:51:49;;;;;;;4.63;4.53;;;;;;;;;;5034098;28;20408;-57
2023/06/24 09:54:16;;;;;;;4.83;4.53;;;;;;;;;;5034645;28;20446;-57
2023/06/24 09:56:53;;;;;;;5.30;4.90;;;;;;;;;;5034490;28;20426;-58
2023/06/24 09:59:24;;;;;;;4.80;4.60;;;;;;;;;;5034754;28;20913;-56
2023/06/24 10:01:50;;;;;;;4.30;4.20;;;;;;;;;;5034674;28;20550;-57
2023/06/24 10:04:20;;;;;;;6.27;5.67;;;;;;;;;;5034488;28;20498;-57
2023/06/24 10:06:46;;;;;;;4.97;4.77;;;;;;;;;;5034639;28;20420;-56
2023/06/24 10:09:16;;;;;;;6.10;4.73;;;;;;;;;;5034414;28;20431;-57
2023/06/24 10:11:45;;;;;;;5.00;4.80;;;;;;;;;;5034376;28;21033;-56
2023/06/24 10:14:13;;;;;;;5.10;4.80;;;;;;;;;;5034438;28;20408;-58
2023/06/24 10:16:40;;;;;;;4.10;3.80;;;;;;;;;;5034406;28;20419;-57
2023/06/24 10:19:06;;;;;;;4.80;4.10;;;;;;;;;;5034544;28;20416;-57
2023/06/24 10:21:51;;;;;;;4.43;4.20;;;;;;;;;;5033803;28;20481;-57
2023/06/24 10:24:37;;;;;;;4.77;4.60;;;;;;;;;;5033967;28;20903;-58
2023/06/24 10:27:09;;;;;;;5.17;4.67;;;;;;;;;;5034460;28;20419;-57
2023/06/24 10:29:38;;;;;;;9.53;5.00;;;;;;;;;;5034130;28;20412;-58
2023/06/24 10:32:08;;;;;;;4.60;4.30;;;;;;;;;;5032945;28;20946;-58
2023/06/24 10:34:46;;;;;;;4.90;4.60;;;;;;;;;;5033801;28;20420;-58
2023/06/24 10:37:24;;;;;;;4.83;4.50;;;;;;;;;;5034219;28;20411;-57
2023/06/24 10:39:56;;;;;;;6.00;4.20;;;;;;;;;;5033954;28;20929;-58
2023/06/24 10:42:37;;;;;;;4.80;4.60;;;;;;;;;;5034091;28;20397;-58
2023/06/24 10:45:09;;;;;;;3.93;3.73;;;;;;;;;;5032678;28;20562;-58
2023/06/24 10:47:41;;;;;;;4.43;4.13;;;;;;;;;;5034012;28;20424;-57
2023/06/24 10:50:13;;;;;;;4.77;4.47;;;;;;;;;;5034025;28;20440;-58
2023/06/24 10:52:40;;;;;;;4.07;3.83;;;;;;;;;;5032531;28;20444;-57
2023/06/24 10:55:09;;;;;;;6.10;4.20;;;;;;;;;;5033613;28;20424;-56
2023/06/24 10:57:35;;;;;;;4.40;4.20;;;;;;;;;;5033856;28;20975;-56
2023/06/24 11:00:03;;;;;;;3.50;3.40;;;;;;;;;;5033288;28;20423;-57
2023/06/24 11:02:29;;;;;;;4.40;4.20;;;;;;;;;;5033719;28;20835;-58
2023/06/24 11:05:00;;;;;;;3.93;3.80;;;;;;;;;;5033199;28;20562;-57
2023/06/24 11:07:27;;;;;;;4.90;4.40;;;;;;;;;;5033422;28;20423;-57
2023/06/24 11:09:54;;;;;;;4.00;3.70;;;;;;;;;;5032019;28;20486;-57
2023/06/24 11:12:23;;;;;;;3.73;3.53;;;;;;;;;;5033362;28;20499;-58
2023/06/24 11:14:52;;;;;;;3.47;3.37;;;;;;;;;;5033639;28;20408;-58
2023/06/24 11:17:20;;;;;;;3.90;3.80;;;;;;;;;;5033216;28;20431;-58
2023/06/24 11:19:46;;;;;;;3.90;3.80;;;;;;;;;;5033137;28;20435;-58
2023/06/24 11:22:16;;;;;;;3.57;3.43;;;;;;;;;;5033259;28;20777;-57
2023/06/24 11:24:42;;;;;;;3.50;3.30;;;;;;;;;;5032950;28;20470;-58
2023/06/24 11:27:08;;;;;;;3.50;3.40;;;;;;;;;;5033221;28;20412;-58
2023/06/24 11:29:34;;;;;;;5.33;3.67;;;;;;;;;;5033302;28;20423;-58
2023/06/24 11:32:03;;;;;;;3.53;3.43;;;;;;;;;;5033183;28;20868;-58
2023/06/24 11:34:30;;;;;;;3.20;3.20;;;;;;;;;;5033160;28;20415;-58
2023/06/24 11:36:56;;;;;;;3.47;3.37;;;;;;;;;;5033283;28;20757;-58
2023/06/24 11:39:22;;;;;;;3.47;3.37;;;;;;;;;;5033277;28;20429;-57
2023/06/24 11:41:48;;;;;;;4.03;3.80;;;;;;;;;;5033041;28;20903;-58
2023/06/24 11:44:17;;;;;;;3.20;3.20;;;;;;;;;;5033007;28;20471;-58
2023/06/24 11:46:43;;;;;;;3.60;3.50;;;;;;;;;;5032909;28;20435;-58
2023/06/24 11:49:10;;;;;;;5.63;5.10;;;;;;;;;;5032665;28;20883;-58
2023/06/24 11:51:37;;;;;;;78.87;54.00;;;;;;;;;;5032873;28;20949;-58
2023/06/24 11:54:05;;;;;;;14.40;12.80;;;;;;;;;;5032668;28;20440;-58
2023/06/24 11:56:37;;;;;;;3.87;3.67;;;;;;;;;;5032983;28;20451;-58
2023/06/24 11:59:06;;;;;;;3.03;3.03;;;;;;;;;;5032433;28;20533;-58
2023/06/24 12:01:32;;;;;;;3.93;3.53;;;;;;;;;;5032297;28;20492;-58
2023/06/24 12:04:01;;;;;;;5.23;3.33;;;;;;;;;;5032513;28;20828;-58
2023/06/24 12:06:27;;;;;;;3.20;3.20;;;;;;;;;;5032717;28;20474;-58
2023/06/24 12:08:53;;;;;;;3.57;3.47;;;;;;;;;;5032296;28;20471;-58
2023/06/24 12:11:22;;;;;;;2.70;2.60;;;;;;;;;;5032609;28;20431;-58
2023/06/24 12:13:49;;;;;;;3.33;3.30;;;;;;;;;;5031894;28;20423;-57
2023/06/24 12:16:15;;;;;;;3.47;3.37;;;;;;;;;;5032552;28;20782;-58
2023/06/24 12:18:43;;;;;;;2.70;2.70;;;;;;;;;;5032632;28;20412;-58
2023/06/24 12:21:10;;;;;;;3.10;3.00;;;;;;;;;;5032357;28;20416;-58
2023/06/24 12:23:36;;;;;;;3.20;3.10;;;;;;;;;;5032719;28;20419;-58
2023/06/24 12:26:02;;;;;;;3.40;3.30;;;;;;;;;;5032509;28;20436;-58
2023/06/24 12:28:28;;;;;;;3.33;3.13;;;;;;;;;;5032460;28;20521;-58
2023/06/24 12:30:54;;;;;;;6.83;2.93;;;;;;;;;;5032361;28;20927;-58
2023/06/24 12:33:22;;;;;;;2.67;2.67;;;;;;;;;;5031182;28;20434;-58
2023/06/24 12:35:50;;;;;;;3.20;2.87;;;;;;;;;;5032068;28;20828;-58
2023/06/24 12:38:16;;;;;;;3.00;3.00;;;;;;;;;;5032187;28;20791;-58
2023/06/24 12:40:43;;;;;;;2.77;2.77;;;;;;;;;;5032132;28;20466;-58
2023/06/24 12:43:09;;;;;;;2.70;2.50;;;;;;;;;;5031796;28;20424;-58
2023/06/24 12:45:35;;;;;;;3.20;3.03;;;;;;;;;;5032366;28;20520;-58
2023/06/24 12:48:03;;;;;;;3.67;3.57;;;;;;;;;;5031941;28;20411;-58
2023/06/24 12:50:31;;;;;;;2.60;2.60;;;;;;;;;;5032014;28;20469;-58
2023/06/24 12:52:59;;;;;;;5.40;2.93;;;;;;;;;;5032213;28;20412;-58
2023/06/24 12:55:27;;;;;;;2.57;2.57;;;;;;;;;;5031970;28;20838;-59
2023/06/24 12:57:53;;;;;;;2.50;2.50;;;;;;;;;;5030525;28;20428;-59
2023/06/24 13:00:22;;;;;;;3.37;3.17;;;;;;;;;;5032109;28;20396;-58
2023/06/24 13:02:49;;;;;;;2.70;2.70;;;;;;;;;;5031948;28;20895;-59
2023/06/24 13:05:18;;;;;;;2.97;2.87;;;;;;;;;;5031887;28;20951;-58
2023/06/24 13:07:46;;;;;;;3.17;2.90;;;;;;;;;;5031854;28;20994;-58
2023/06/24 13:10:12;;;;;;;2.80;2.80;;;;;;;;;;5032174;28;20830;-58
2023/06/24 13:12:38;;;;;;;3.30;3.10;;;;;;;;;;5031733;28;20416;-59
2023/06/24 13:15:05;;;;;;;3.80;3.63;;;;;;;;;;5031036;28;20423;-58
2023/06/24 13:17:31;;;;;;;3.13;3.13;;;;;;;;;;5031141;28;20508;-58
2023/06/24 13:19:57;;;;;;;3.10;2.90;;;;;;;;;;5031327;28;20455;-59
2023/06/24 13:22:23;;;;;;;3.40;3.30;;;;;;;;;;5031109;28;20440;-58
2023/06/24 13:24:52;;;;;;;2.90;2.80;;;;;;;;;;5031516;28;20459;-58
2023/06/24 13:27:18;;;;;;;2.90;2.80;;;;;;;;;;5034410;28;20541;-58
2023/06/24 13:29:44;;;;;;;2.50;2.50;;;;;;;;;;5033651;28;20522;-58
2023/06/24 13:32:10;;;;;;;3.07;2.87;;;;;;;;;;5034817;28;20189;-58
2023/06/24 13:34:36;;;;;;;2.80;2.70;;;;;;;;;;5034829;28;20941;-59
2023/06/24 13:37:02;;;;;;;3.73;3.60;;;;;;;;;;5034929;28;20412;-58
2023/06/24 13:39:28;;;;;;;3.60;3.50;;;;;;;;;;5034651;28;20434;-58
2023/06/24 13:41:56;;;;;;;3.50;3.17;;;;;;;;;;5034827;28;20420;-58
2023/06/24 13:44:23;;;;;;;2.80;2.80;;;;;;;;;;5034641;28;20479;-58
2023/06/24 13:46:54;;;;;;;2.70;2.70;;;;;;;;;;5034448;28;20412;-58
2023/06/24 13:49:20;;;;;;;3.10;3.00;;;;;;;;;;5035055;28;20831;-58
2023/06/24 13:51:46;;;;;;;2.60;2.50;;;;;;;;;;5033518;28;20458;-58
2023/06/24 13:54:12;;;;;;;2.90;2.80;;;;;;;;;;5034395;28;20413;-58
2023/06/24 13:56:38;;;;;;;2.80;2.80;;;;;;;;;;5034339;28;20926;-58
2023/06/24 13:59:04;;;;;;;3.27;3.17;;;;;;;;;;5034732;28;20910;-58
2023/06/24 14:01:31;;;;;;;2.70;2.70;;;;;;;;;;5034504;28;20441;-58
2023/06/24 14:03:57;;;;;;;4.53;3.27;;;;;;;;;;5034464;28;20455;-58
2023/06/24 14:06:25;;;;;;;3.13;3.03;;;;;;;;;;5034487;28;20415;-58
2023/06/24 14:08:51;;;;;;;3.07;2.97;;;;;;;;;;5034493;28;20428;-58
2023/06/24 14:11:18;;;;;;;3.17;3.10;;;;;;;;;;5034504;28;20397;-58
2023/06/24 14:13:44;;;;;;;2.50;2.40;;;;;;;;;;5034385;28;20430;-58
2023/06/24 14:16:13;;;;;;;3.20;3.00;;;;;;;;;;5034475;28;20837;-58
2023/06/24 14:18:42;;;;;;;3.10;2.67;;;;;;;;;;5034411;28;20439;-58
2023/06/24 14:21:08;;;;;;;6.17;4.30;;;;;;;;;;5034012;28;20431;-58
2023/06/24 14:23:35;;;;;;;2.80;2.80;;;;;;;;;;5033901;28;20435;-58
2023/06/24 14:26:03;;;;;;;2.70;2.70;;;;;;;;;;5032885;28;20420;-58
2023/06/24 14:28:29;;;;;;;3.47;3.37;;;;;;;;;;5033875;28;20416;-59
2023/06/24 14:30:55;;;;;;;2.73;2.73;;;;;;;;;;5034039;28;20415;-58
2023/06/24 14:33:21;;;;;;;2.57;2.47;;;;;;;;;;5033802;28;20416;-58
2023/06/24 14:35:47;;;;;;;2.60;2.60;;;;;;;;;;5033833;28;20570;-59
2023/06/24 14:38:15;;;;;;;3.30;3.17;;;;;;;;;;5033396;28;20502;-59
2023/06/24 14:40:43;;;;;;;3.43;3.27;;;;;;;;;;5033856;28;20939;-58
2023/06/24 14:43:09;;;;;;;2.83;2.73;;;;;;;;;;5034219;28;20922;-59